Time;durP1;ratioP1;P1;durP2;ratioP2;P2;SDS_P1;SDS_P2;PMS_P1;PMS_P2;Temp;Humidity;BMP_temperature;BMP_pressure;BME280_temperature;BME280_humidity;BME280_pressure;Samples;Min_cycle;Max_cycle;Signal;HPM_P1;HPM_P2
2022/06/23 00:02:12;;;;;;;10.38;5.20;;;21.90;54.00;;;;;;5094218;28;20383;-67
2022/06/23 00:04:42;;;;;;;8.70;5.15;;;21.90;53.50;;;;;;5094186;28;20025;-67
2022/06/23 00:07:21;;;;;;;8.45;5.18;;;21.80;53.70;;;;;;5094065;28;20027;-67
2022/06/23 00:09:50;;;;;;;9.40;5.10;;;21.80;54.10;;;;;;5094124;28;20126;-67
2022/06/23 00:12:26;;;;;;;9.15;5.30;;;21.70;54.50;;;;;;5093829;28;20044;-67
2022/06/23 00:14:54;;;;;;;8.90;5.20;;;21.60;54.80;;;;;;5094123;28;20535;-67
2022/06/23 00:17:34;;;;;;;11.38;5.82;;;21.60;54.90;;;;;;5093901;28;20513;-67
2022/06/23 00:20:05;;;;;;;8.20;5.57;;;21.60;55.30;;;;;;5093926;28;20039;-67
2022/06/23 00:22:33;;;;;;;11.85;6.32;;;21.50;55.70;;;;;;5093907;28;20028;-67
2022/06/23 00:25:02;;;;;;;9.57;5.65;;;21.50;55.90;;;;;;5093778;28;20066;-67
2022/06/23 00:27:46;;;;;;;7.85;5.93;;;21.50;57.20;;;;;;5093791;28;20043;-67
2022/06/23 00:30:40;;;;;;;12.95;6.20;;;21.40;56.60;;;;;;5093770;28;20471;-67
2022/06/23 00:33:18;;;;;;;10.15;6.18;;;21.40;56.70;;;;;;5091590;28;20437;-67
2022/06/23 00:35:44;;;;;;;9.45;6.53;;;21.40;57.10;;;;;;5093648;28;20036;-67
2022/06/23 00:38:22;;;;;;;12.00;6.00;;;21.30;57.40;;;;;;5093574;28;20043;-67
2022/06/23 00:40:48;;;;;;;12.73;5.90;;;21.30;57.30;;;;;;5093693;28;20024;-67
2022/06/23 00:43:14;;;;;;;10.38;6.40;;;21.30;57.30;;;;;;5093477;28;20024;-67
2022/06/23 00:45:50;;;;;;;9.93;6.75;;;21.30;57.60;;;;;;5093438;28;20037;-67
2022/06/23 00:48:23;;;;;;;8.63;6.22;;;21.20;57.60;;;;;;5093417;28;20084;-67
2022/06/23 00:51:15;;;;;;;13.07;6.72;;;21.20;58.00;;;;;;5093457;28;20027;-67
2022/06/23 00:53:56;;;;;;;12.65;6.40;;;21.20;58.20;;;;;;5093441;28;20077;-67
2022/06/23 00:56:42;;;;;;;10.52;6.70;;;21.10;58.20;;;;;;5093404;28;20021;-67
2022/06/23 00:59:34;;;;;;;10.63;6.50;;;21.10;58.20;;;;;;5093438;28;20024;-67
2022/06/23 01:02:09;;;;;;;9.85;6.68;;;21.10;58.30;;;;;;5086614;28;20085;-67
2022/06/23 01:04:43;;;;;;;11.27;6.25;;;20.90;59.00;;;;;;5093385;28;20027;-67
2022/06/23 01:07:36;;;;;;;11.57;6.28;;;20.90;59.30;;;;;;5093149;28;20032;-67
2022/06/23 01:10:13;;;;;;;12.23;6.05;;;20.90;59.50;;;;;;5093373;28;20028;-67
2022/06/23 01:12:48;;;;;;;13.43;6.65;;;20.90;59.70;;;;;;5093073;28;20098;-67
2022/06/23 01:15:19;;;;;;;10.73;6.63;;;20.90;59.20;;;;;;5093219;28;20026;-67
2022/06/23 01:17:53;;;;;;;11.07;6.38;;;20.90;59.10;;;;;;5093218;28;20024;-67
2022/06/23 01:20:46;;;;;;;11.48;6.70;;;20.80;59.60;;;;;;5092045;28;20050;-67
2022/06/23 01:23:30;;;;;;;9.25;6.55;;;20.70;60.40;;;;;;5093176;28;20032;-67
2022/06/23 01:25:58;;;;;;;8.68;6.18;;;20.70;60.00;;;;;;5093156;28;20056;-67
2022/06/23 01:28:29;;;;;;;12.88;6.95;;;20.70;59.70;;;;;;5092970;28;20033;-67
2022/06/23 01:31:19;;;;;;;11.90;7.05;;;20.70;60.10;;;;;;5093008;28;20021;-67
2022/06/23 01:33:54;;;;;;;11.40;6.43;;;20.60;60.10;;;;;;5093001;28;20024;-67
2022/06/23 01:36:25;;;;;;;14.02;7.18;;;20.60;60.10;;;;;;5091942;28;20036;-67
2022/06/23 01:39:15;;;;;;;12.32;7.07;;;20.60;60.00;;;;;;5092997;28;20044;-67
2022/06/23 01:41:53;;;;;;;9.95;6.28;;;20.60;60.30;;;;;;5093021;28;20076;-67
2022/06/23 01:44:39;;;;;;;12.18;6.90;;;20.60;59.90;;;;;;5092966;28;20016;-67
2022/06/23 01:47:34;;;;;;;11.07;6.53;;;20.60;59.80;;;;;;5092473;28;20071;-67
2022/06/23 01:50:14;;;;;;;14.20;7.25;;;20.50;59.90;;;;;;5092830;28;20067;-67
2022/06/23 01:52:42;;;;;;;10.77;6.57;;;20.40;59.90;;;;;;5092800;28;20021;-67
2022/06/23 01:55:19;;;;;;;10.20;6.38;;;20.40;60.10;;;;;;5092766;28;20020;-67
2022/06/23 01:57:52;;;;;;;10.35;6.80;;;20.40;60.30;;;;;;5092768;28;20024;-67
2022/06/23 02:00:21;;;;;;;12.02;6.88;;;20.40;60.40;;;;;;5092738;28;20025;-67
2022/06/23 02:02:49;;;;;;;12.45;6.80;;;20.30;60.40;;;;;;5092691;28;20029;-67
2022/06/23 02:05:27;;;;;;;12.68;6.75;;;20.30;60.60;;;;;;5092667;28;20050;-67
2022/06/23 02:08:11;;;;;;;11.15;6.75;;;20.20;60.90;;;;;;5091641;28;20029;-67
2022/06/23 02:11:21;;;;;;;9.98;6.47;;;20.20;60.70;;;;;;5092471;28;20028;-68
2022/06/23 02:13:56;;;;;;;9.32;6.30;;;20.30;60.20;;;;;;5073256;28;20040;-67
2022/06/23 02:16:36;;;;;;;11.38;6.50;;;20.20;60.50;;;;;;5092594;28;20060;-67
2022/06/23 02:19:39;;;;;;;10.02;6.57;;;20.10;60.60;;;;;;5093505;28;20025;-67
2022/06/23 02:22:16;;;;;;;11.95;6.38;;;20.20;60.50;;;;;;5096193;28;20025;-67
2022/06/23 02:24:54;;;;;;;12.20;6.65;;;20.20;60.40;;;;;;5094041;28;20029;-67
2022/06/23 02:27:33;;;;;;;9.63;6.38;;;20.10;60.50;;;;;;5094949;28;20024;-67
2022/06/23 02:30:12;;;;;;;9.07;6.75;;;20.00;60.50;;;;;;5096098;28;20020;-67
2022/06/23 02:33:13;;;;;;;8.65;6.30;;;19.90;60.70;;;;;;5095997;28;20024;-67
2022/06/23 02:35:41;;;;;;;8.98;6.30;;;19.90;60.90;;;;;;5095937;28;20029;-67
2022/06/23 02:38:11;;;;;;;9.45;6.20;;;19.90;60.70;;;;;;5095878;28;20035;-67
2022/06/23 02:40:45;;;;;;;11.85;6.72;;;19.90;60.70;;;;;;5095988;28;20028;-67
2022/06/23 02:43:14;;;;;;;10.18;6.28;;;20.00;60.40;;;;;;5095941;28;20135;-67
2022/06/23 02:45:56;;;;;;;10.05;6.00;;;19.90;59.90;;;;;;5095714;28;20036;-67
2022/06/23 02:48:47;;;;;;;9.87;6.20;;;19.90;59.80;;;;;;5094660;28;20056;-67
2022/06/23 02:51:38;;;;;;;8.93;6.43;;;19.90;60.00;;;;;;5072038;28;20088;-67
2022/06/23 02:54:15;;;;;;;9.80;5.80;;;19.80;60.10;;;;;;5095622;28;20028;-67
2022/06/23 02:57:11;;;;;;;8.15;5.50;;;19.70;60.60;;;;;;5094574;28;20032;-67
2022/06/23 03:00:09;;;;;;;10.00;5.97;;;19.80;60.20;;;;;;5094464;28;20024;-67
2022/06/23 03:02:42;;;;;;;7.40;5.57;;;19.80;60.10;;;;;;5066652;28;20037;-67
2022/06/23 03:05:37;;;;;;;9.13;5.88;;;19.70;59.70;;;;;;5094103;28;20088;-67
2022/06/23 03:08:41;;;;;;;8.73;5.70;;;19.70;59.80;;;;;;5095254;28;20028;-67
2022/06/23 03:11:15;;;;;;;10.68;5.95;;;19.60;60.00;;;;;;5095241;28;20040;-68
2022/06/23 03:13:55;;;;;;;8.88;5.75;;;19.60;60.00;;;;;;5095414;28;20025;-67
2022/06/23 03:16:53;;;;;;;10.63;6.20;;;19.70;59.60;;;;;;5095230;28;20467;-67
2022/06/23 03:19:33;;;;;;;10.18;5.72;;;19.70;59.10;;;;;;5083077;28;20063;-67
2022/06/23 03:22:22;;;;;;;8.45;6.00;;;19.60;59.10;;;;;;5094151;28;20025;-67
2022/06/23 03:24:59;;;;;;;10.90;6.22;;;19.50;59.90;;;;;;5095158;28;20021;-67
2022/06/23 03:27:34;;;;;;;12.63;6.40;;;19.50;59.90;;;;;;5094864;28;20033;-67
2022/06/23 03:30:22;;;;;;;8.40;6.13;;;19.50;60.00;;;;;;5094403;28;20021;-67
2022/06/23 03:32:56;;;;;;;8.63;5.70;;;19.40;60.00;;;;;;5094081;28;20082;-67
2022/06/23 03:35:27;;;;;;;11.15;5.93;;;19.40;60.10;;;;;;5094821;28;20021;-67
2022/06/23 03:38:06;;;;;;;10.88;5.30;;;19.50;60.00;;;;;;5094756;28;20031;-67
2022/06/23 03:43:33;;;;;;;8.35;6.22;;;19.50;59.40;;;;;;5094662;28;20070;-67
2022/06/23 03:46:40;;;;;;;12.55;7.03;;;19.30;59.70;;;;;;5094516;28;20029;-67
2022/06/23 03:49:34;;;;;;;11.18;6.10;;;19.20;59.70;;;;;;5094397;28;20029;-67
2022/06/23 03:52:04;;;;;;;9.25;6.20;;;19.20;60.70;;;;;;5094545;28;20016;-67
2022/06/23 03:54:45;;;;;;;10.43;6.57;;;19.20;60.50;;;;;;5094425;28;20021;-67
2022/06/23 03:57:18;;;;;;;9.43;6.10;;;19.20;60.10;;;;;;5094504;28;20020;-67
2022/06/23 04:00:25;;;;;;;10.05;6.60;;;19.10;60.20;;;;;;5094305;28;20020;-67
2022/06/23 04:03:03;;;;;;;11.95;6.28;;;19.00;60.80;;;;;;5032705;28;20064;-67
2022/06/23 04:05:54;;;;;;;7.63;5.78;;;19.10;61.40;;;;;;5086427;28;20041;-67
2022/06/23 04:08:24;;;;;;;8.85;6.35;;;19.00;61.40;;;;;;5094039;28;20029;-67
2022/06/23 04:10:53;;;;;;;8.52;6.45;;;19.10;62.00;;;;;;5093990;28;20048;-68
2022/06/23 04:13:27;;;;;;;8.65;6.10;;;19.10;60.60;;;;;;5093917;28;20044;-67
2022/06/23 04:15:55;;;;;;;11.85;6.50;;;19.20;61.10;;;;;;5094147;28;20024;-67
2022/06/23 04:18:25;;;;;;;11.13;6.85;;;19.20;61.10;;;;;;5093910;28;20021;-67
2022/06/23 04:20:56;;;;;;;9.60;6.10;;;19.20;60.60;;;;;;5093952;28;20047;-67
2022/06/23 04:23:35;;;;;;;8.18;6.25;;;19.20;60.30;;;;;;5093895;28;20052;-67
2022/06/23 04:26:14;;;;;;;9.85;6.75;;;19.10;60.60;;;;;;5093834;28;20024;-67
2022/06/23 04:28:47;;;;;;;10.85;6.47;;;19.10;60.80;;;;;;5093649;28;20062;-67
2022/06/23 04:31:25;;;;;;;11.30;6.65;;;19.00;61.00;;;;;;5093750;28;20012;-67
2022/06/23 04:33:53;;;;;;;10.70;6.47;;;19.00;61.50;;;;;;5093835;28;20046;-67
2022/06/23 04:36:24;;;;;;;9.18;6.15;;;19.00;62.00;;;;;;5093609;28;20123;-67
2022/06/23 04:38:53;;;;;;;14.68;6.82;;;19.00;61.80;;;;;;5093619;28;20035;-67
2022/06/23 04:41:44;;;;;;;12.63;6.97;;;19.00;62.00;;;;;;5093431;28;20032;-67
2022/06/23 04:44:35;;;;;;;12.45;6.43;;;19.10;61.80;;;;;;5093478;28;20021;-67
2022/06/23 04:47:22;;;;;;;15.27;6.68;;;19.10;62.10;;;;;;5091813;28;20037;-67
2022/06/23 04:49:53;;;;;;;12.07;6.53;;;19.20;61.70;;;;;;5093411;28;20027;-66
2022/06/23 04:52:41;;;;;;;11.13;6.47;;;19.20;61.90;;;;;;5093492;28;20073;-67
2022/06/23 04:55:36;;;;;;;10.23;6.80;;;19.20;61.30;;;;;;5093329;28;20376;-67
2022/06/23 04:58:12;;;;;;;12.10;6.95;;;19.10;61.10;;;;;;5080406;28;20045;-67
2022/06/23 05:00:43;;;;;;;12.02;6.50;;;19.10;61.80;;;;;;5093261;28;20063;-67
2022/06/23 05:03:27;;;;;;;10.85;6.35;;;19.10;62.30;;;;;;5093319;28;20050;-67
2022/06/23 05:06:17;;;;;;;10.25;6.25;;;19.10;61.70;;;;;;5093287;28;20088;-68
2022/06/23 05:08:45;;;;;;;13.23;6.35;;;19.10;61.20;;;;;;5093215;28;20376;-67
2022/06/23 05:11:38;;;;;;;9.40;6.10;;;19.10;61.30;;;;;;5093002;28;20021;-67
2022/06/23 05:14:13;;;;;;;9.13;5.93;;;19.10;61.30;;;;;;5093247;28;20032;-67
2022/06/23 05:16:43;;;;;;;10.40;6.43;;;19.10;62.50;;;;;;5093288;28;20012;-67
2022/06/23 05:19:16;;;;;;;9.05;6.25;;;19.10;62.00;;;;;;5093260;28;20081;-67
2022/06/23 05:21:46;;;;;;;12.07;6.20;;;19.10;61.50;;;;;;5093126;28;20066;-66
2022/06/23 05:24:34;;;;;;;10.80;6.53;;;19.10;61.30;;;;;;5093163;28;20020;-67
2022/06/23 05:27:08;;;;;;;9.82;6.43;;;19.20;61.40;;;;;;5093035;28;20068;-67
2022/06/23 05:29:40;;;;;;;12.13;5.70;;;19.30;61.70;;;;;;5093023;28;20016;-67
2022/06/23 05:32:11;;;;;;;;;;;19.30;61.60;;;;;;5093468;28;20016;-67
2022/06/23 05:34:47;;;;;;;9.25;5.88;;;19.30;62.00;;;;;;5093065;28;19967;-67
2022/06/23 05:37:37;;;;;;;15.63;6.65;;;19.30;61.80;;;;;;5093150;28;20070;-67
2022/06/23 05:40:23;;;;;;;10.52;6.40;;;19.30;62.30;;;;;;5083804;28;20028;-67
2022/06/23 05:42:51;;;;;;;9.95;6.53;;;19.30;62.50;;;;;;5093076;28;20042;-67
2022/06/23 05:45:26;;;;;;;9.52;6.35;;;19.40;61.90;;;;;;5092871;28;20023;-67
2022/06/23 05:47:53;;;;;;;9.45;6.32;;;19.40;61.90;;;;;;5092781;28;20025;-67
2022/06/23 05:50:28;;;;;;;11.02;6.60;;;19.50;62.10;;;;;;5091913;28;20082;-67
2022/06/23 05:53:10;;;;;;;11.25;6.28;;;19.50;62.70;;;;;;5092827;28;20117;-67
2022/06/23 05:55:50;;;;;;;10.43;6.40;;;19.60;62.80;;;;;;5096204;28;20035;-67
2022/06/23 05:58:31;;;;;;;12.63;6.85;;;19.70;61.70;;;;;;5096699;28;20032;-68
2022/06/23 06:00:59;;;;;;;11.15;6.45;;;19.70;61.70;;;;;;5095528;28;20052;-68
2022/06/23 06:03:34;;;;;;;11.35;6.80;;;19.80;61.90;;;;;;5096514;28;20056;-67
2022/06/23 06:06:01;;;;;;;9.20;6.32;;;19.90;61.10;;;;;;5096506;28;20024;-68
2022/06/23 06:09:35;;;;;;;11.95;6.30;;;20.00;61.80;;;;;;5096368;28;20021;-68
2022/06/23 06:11:21;;;;;;;10.60;6.63;;;20.00;61.70;;;;;;5096042;28;20048;-68
2022/06/23 06:13:46;;;;;;;11.70;6.40;;;20.10;61.00;;;;;;5096328;28;20020;-68
2022/06/23 06:16:12;;;;;;;8.45;6.57;;;20.10;59.70;;;;;;5096257;28;20032;-68
2022/06/23 06:18:41;;;;;;;9.65;6.30;;;20.20;60.20;;;;;;5096271;28;20167;-67
2022/06/23 06:21:09;;;;;;;9.35;5.60;;;20.30;59.90;;;;;;5096203;28;20539;-67
2022/06/23 06:23:49;;;;;;;9.85;6.13;;;20.40;60.10;;;;;;5096154;28;20034;-68
2022/06/23 06:26:22;;;;;;;8.25;5.95;;;20.40;59.90;;;;;;5096164;28;20028;-67
2022/06/23 06:28:48;;;;;;;9.98;5.78;;;20.40;60.50;;;;;;5095916;28;20029;-67
2022/06/23 06:31:25;;;;;;;11.93;6.20;;;20.50;59.50;;;;;;5095045;28;20415;-68
2022/06/23 06:34:13;;;;;;;13.48;5.93;;;20.60;59.90;;;;;;5096003;28;20025;-68
2022/06/23 06:36:43;;;;;;;9.27;6.05;;;20.70;59.20;;;;;;5095894;28;20020;-67
2022/06/23 06:39:17;;;;;;;12.55;6.18;;;20.80;59.30;;;;;;5095863;28;20016;-68
2022/06/23 06:42:03;;;;;;;9.73;6.45;;;20.80;59.30;;;;;;5095869;28;20054;-68
2022/06/23 06:44:30;;;;;;;8.73;6.30;;;20.90;58.40;;;;;;5095881;28;20031;-68
2022/06/23 06:46:56;;;;;;;9.73;5.60;;;20.90;58.20;;;;;;5095679;28;20020;-70
2022/06/23 06:49:24;;;;;;;9.60;6.05;;;20.90;58.70;;;;;;5095777;28;20016;-73
2022/06/23 06:51:52;;;;;;;10.23;5.72;;;21.00;58.30;;;;;;5095662;28;20126;-69
2022/06/23 06:54:23;;;;;;;8.85;5.80;;;21.00;57.60;;;;;;5095543;28;20021;-69
2022/06/23 06:56:55;;;;;;;7.28;5.18;;;21.10;58.30;;;;;;5095571;28;20026;-68
2022/06/23 06:59:21;;;;;;;;;;;21.20;57.80;;;;;;5094963;28;20021;-69
2022/06/23 07:01:53;;;;;;;11.95;6.20;;;21.30;58.00;;;;;;5095482;28;19911;-68
2022/06/23 07:04:30;;;;;;;8.40;5.95;;;21.20;58.70;;;;;;5095580;28;20021;-69
2022/06/23 07:07:05;;;;;;;10.85;5.60;;;21.30;58.50;;;;;;5095364;28;20088;-69
2022/06/23 07:09:43;;;;;;;9.63;5.93;;;21.40;58.80;;;;;;5095339;28;20017;-69
2022/06/23 07:12:31;;;;;;;7.28;5.65;;;21.50;57.70;;;;;;5095153;28;20399;-69
2022/06/23 07:15:22;;;;;;;8.65;5.15;;;21.60;58.60;;;;;;5095252;28;20046;-69
2022/06/23 07:18:06;;;;;;;11.45;7.30;;;21.70;58.30;;;;;;5095078;28;20028;-69
2022/06/23 07:20:38;;;;;;;7.95;5.90;;;21.70;58.10;;;;;;5095285;28;20020;-69
2022/06/23 07:23:20;;;;;;;9.15;5.97;;;21.80;57.80;;;;;;5095258;28;20035;-69
2022/06/23 07:25:50;;;;;;;10.73;6.03;;;21.90;57.80;;;;;;5095049;28;20036;-69
2022/06/23 07:28:32;;;;;;;9.50;6.07;;;22.00;59.60;;;;;;5094823;28;20036;-69
2022/06/23 07:31:24;;;;;;;8.68;6.10;;;22.00;57.40;;;;;;5094978;28;20021;-69
2022/06/23 07:34:01;;;;;;;9.98;6.25;;;22.10;57.70;;;;;;5093950;28;20028;-69
2022/06/23 07:36:42;;;;;;;8.18;5.75;;;22.20;58.10;;;;;;5094830;28;20031;-69
2022/06/23 07:39:13;;;;;;;11.82;6.10;;;22.30;57.80;;;;;;5094899;28;20029;-69
2022/06/23 07:42:00;;;;;;;8.25;6.22;;;22.40;58.10;;;;;;5094687;28;20052;-69
2022/06/23 07:44:33;;;;;;;8.00;6.05;;;22.50;57.20;;;;;;5094738;28;20035;-69
2022/06/23 07:47:01;;;;;;;9.82;6.43;;;22.50;57.50;;;;;;5094662;28;20041;-69
2022/06/23 07:49:27;;;;;;;13.63;7.28;;;22.50;56.70;;;;;;5093425;28;20032;-69
2022/06/23 07:51:55;;;;;;;13.07;6.72;;;22.60;57.70;;;;;;5094465;28;20021;-69
2022/06/23 07:54:21;;;;;;;9.98;6.72;;;22.70;58.00;;;;;;5094447;28;20165;-69
2022/06/23 07:56:49;;;;;;;10.77;7.10;;;22.80;58.30;;;;;;5094363;28;20020;-69
2022/06/23 07:59:25;;;;;;;13.70;6.75;;;23.00;58.00;;;;;;5094311;28;20027;-69
2022/06/23 08:02:22;;;;;;;11.57;6.35;;;23.10;57.50;;;;;;5094343;28;20017;-69
2022/06/23 08:05:06;;;;;;;11.35;7.40;;;23.20;58.00;;;;;;5094383;28;20017;-69
2022/06/23 08:07:34;;;;;;;12.35;6.80;;;23.30;58.00;;;;;;5094270;28;20020;-69
2022/06/23 08:10:07;;;;;;;9.90;6.95;;;23.40;57.50;;;;;;5094153;28;20017;-69
2022/06/23 08:12:56;;;;;;;10.63;7.63;;;23.50;57.50;;;;;;5093907;28;20044;-69
2022/06/23 08:18:39;;;;;;;10.55;7.13;;;23.70;58.80;;;;;;5093607;28;20063;-69
2022/06/23 08:21:16;;;;;;;12.85;7.53;;;23.80;57.30;;;;;;5093964;28;20096;-68
2022/06/23 08:24:05;;;;;;;12.23;8.35;;;23.80;56.90;;;;;;5093888;28;20052;-68
2022/06/23 08:26:34;;;;;;;15.18;7.30;;;23.80;56.10;;;;;;5093608;28;20032;-69
2022/06/23 08:29:03;;;;;;;10.98;7.60;;;23.80;57.30;;;;;;5093704;28;20031;-69
2022/06/23 08:31:30;;;;;;;15.25;8.20;;;23.90;58.10;;;;;;5093719;28;20020;-68
2022/06/23 08:33:59;;;;;;;15.18;8.05;;;24.10;58.30;;;;;;5093678;28;20016;-69
2022/06/23 08:36:33;;;;;;;15.68;8.20;;;24.20;57.90;;;;;;5093616;28;20047;-69
2022/06/23 08:39:06;;;;;;;12.20;7.63;;;24.30;58.80;;;;;;5093478;28;20035;-69
2022/06/23 08:42:06;;;;;;;13.18;7.72;;;24.30;57.10;;;;;;5093562;28;20031;-68
2022/06/23 08:44:52;;;;;;;10.93;7.28;;;24.40;58.00;;;;;;5093515;28;20020;-68
2022/06/23 08:47:39;;;;;;;10.82;7.43;;;24.50;57.50;;;;;;5093392;28;20040;-68
2022/06/23 08:50:28;;;;;;;13.57;8.48;;;24.60;57.70;;;;;;5093570;28;20025;-69
2022/06/23 08:53:03;;;;;;;10.32;8.63;;;24.70;57.90;;;;;;5082632;28;20041;-68
2022/06/23 08:55:47;;;;;;;12.18;7.75;;;24.80;57.70;;;;;;5093487;28;20047;-68
2022/06/23 08:58:41;;;;;;;15.93;8.10;;;24.90;57.90;;;;;;5093360;28;20032;-68
2022/06/23 09:01:28;;;;;;;12.02;7.50;;;25.00;56.60;;;;;;5093389;28;20028;-69
2022/06/23 09:04:17;;;;;;;10.98;7.25;;;25.00;57.40;;;;;;5093375;28;20039;-68
2022/06/23 09:06:50;;;;;;;13.18;8.15;;;25.10;55.90;;;;;;5093335;28;20028;-68
2022/06/23 09:09:58;;;;;;;13.38;7.85;;;25.10;55.80;;;;;;5093271;28;20055;-69
2022/06/23 09:12:39;;;;;;;14.55;8.40;;;25.20;56.30;;;;;;5063558;28;20063;-69
2022/06/23 09:15:37;;;;;;;12.80;8.10;;;25.30;55.80;;;;;;5093236;28;20116;-68
2022/06/23 09:18:35;;;;;;;14.95;8.10;;;25.30;55.50;;;;;;5093227;28;20041;-68
2022/06/23 09:21:16;;;;;;;14.20;7.70;;;25.40;55.90;;;;;;5093220;28;20051;-68
2022/06/23 09:24:15;;;;;;;12.25;7.55;;;25.60;56.10;;;;;;5093293;28;20028;-68
2022/06/23 09:26:58;;;;;;;11.65;7.78;;;25.70;56.90;;;;;;5093076;28;20024;-68
2022/06/23 09:29:52;;;;;;;13.00;8.35;;;25.80;56.40;;;;;;5093327;28;20197;-69
2022/06/23 09:32:43;;;;;;;14.95;7.95;;;25.80;55.70;;;;;;5097216;28;20075;-69
2022/06/23 09:35:44;;;;;;;12.20;7.20;;;25.90;56.80;;;;;;5097290;28;20021;-68
2022/06/23 09:38:16;;;;;;;13.63;7.10;;;26.00;56.90;;;;;;5097156;28;20031;-69
2022/06/23 09:41:10;;;;;;;11.48;7.35;;;26.10;56.10;;;;;;5097218;28;20025;-69
2022/06/23 09:43:59;;;;;;;11.88;6.60;;;26.30;56.20;;;;;;5096754;28;20092;-69
2022/06/23 09:46:46;;;;;;;11.70;7.50;;;26.40;54.30;;;;;;5097072;28;20032;-69
2022/06/23 09:49:17;;;;;;;13.48;7.07;;;26.50;56.60;;;;;;5096909;28;20449;-68
2022/06/23 09:52:20;;;;;;;13.43;7.57;;;26.60;56.60;;;;;;5095812;28;20029;-68
2022/06/23 09:55:24;;;;;;;14.50;6.80;;;26.70;54.70;;;;;;5096954;28;20020;-69
2022/06/23 09:58:08;;;;;;;13.20;6.32;;;26.70;55.00;;;;;;5073154;28;20032;-69
2022/06/23 10:01:12;;;;;;;12.10;5.60;;;26.80;53.70;;;;;;5096793;28;20036;-69
2022/06/23 10:03:56;;;;;;;7.90;4.72;;;26.80;54.70;;;;;;5096550;28;20055;-68
2022/06/23 10:06:47;;;;;;;7.60;3.67;;;26.90;54.50;;;;;;5096539;28;20032;-68
2022/06/23 10:09:31;;;;;;;13.55;3.83;;;27.10;52.60;;;;;;5096701;28;20089;-69
2022/06/23 10:12:19;;;;;;;8.60;4.15;;;27.20;52.60;;;;;;5096263;28;20139;-67
2022/06/23 10:15:29;;;;;;;10.55;3.65;;;27.40;53.80;;;;;;5096282;28;20044;-66
2022/06/23 10:18:16;;;;;;;8.90;3.40;;;27.50;51.00;;;;;;5096348;28;20040;-66
2022/06/23 10:21:03;;;;;;;11.50;3.50;;;27.50;50.60;;;;;;5096402;28;20024;-66
2022/06/23 10:23:58;;;;;;;9.93;3.30;;;27.60;50.40;;;;;;5096249;28;20087;-67
2022/06/23 10:26:32;;;;;;;9.93;3.75;;;27.70;51.80;;;;;;5082640;28;20033;-67
2022/06/23 10:29:01;;;;;;;11.40;3.67;;;27.70;50.50;;;;;;5096026;28;20040;-67
2022/06/23 10:32:00;;;;;;;7.13;3.17;;;27.70;52.00;;;;;;5096161;28;20072;-66
2022/06/23 10:34:50;;;;;;;12.32;3.10;;;27.70;52.70;;;;;;5096149;28;20025;-66
2022/06/23 10:37:54;;;;;;;7.68;3.15;;;27.70;50.30;;;;;;5096094;28;20024;-66
2022/06/23 10:40:40;;;;;;;8.05;3.22;;;27.80;51.10;;;;;;5095389;28;20029;-66
2022/06/23 10:43:15;;;;;;;6.53;2.70;;;27.90;51.70;;;;;;5095308;28;20036;-66
2022/06/23 10:45:56;;;;;;;9.27;2.88;;;27.90;50.30;;;;;;5095969;28;20029;-66
2022/06/23 10:48:40;;;;;;;8.50;3.45;;;28.00;51.30;;;;;;5095693;28;20028;-66
2022/06/23 10:51:24;;;;;;;7.75;3.15;;;28.10;47.80;;;;;;5095831;28;20081;-66
2022/06/23 10:54:23;;;;;;;9.38;3.50;;;28.10;48.90;;;;;;5095717;28;20085;-66
2022/06/23 10:57:07;;;;;;;8.20;3.72;;;28.30;51.30;;;;;;5095766;28;20039;-70
2022/06/23 10:59:39;;;;;;;12.05;3.30;;;28.40;50.90;;;;;;5095779;28;20017;-69
2022/06/23 11:02:24;;;;;;;10.13;3.60;;;28.30;49.10;;;;;;5095734;28;20025;-68
2022/06/23 11:05:16;;;;;;;7.22;3.50;;;28.20;50.50;;;;;;5095638;28;20024;-69
2022/06/23 11:08:19;;;;;;;12.57;3.97;;;28.10;50.40;;;;;;5095519;28;20029;-69
2022/06/23 11:10:57;;;;;;;7.53;3.90;;;28.10;50.80;;;;;;5095414;28;20028;-68
2022/06/23 11:13:25;;;;;;;15.55;4.75;;;28.00;51.10;;;;;;5095147;28;20056;-69
2022/06/23 11:16:06;;;;;;;9.52;3.90;;;28.00;51.60;;;;;;5095349;28;20036;-68
2022/06/23 11:18:44;;;;;;;10.25;4.07;;;28.10;52.50;;;;;;5095231;28;20031;-69
2022/06/23 11:21:28;;;;;;;8.35;3.97;;;28.20;50.40;;;;;;5095221;28;20074;-68
2022/06/23 11:24:16;;;;;;;13.23;4.47;;;28.30;50.50;;;;;;5095130;28;20029;-68
2022/06/23 11:27:18;;;;;;;8.45;4.22;;;28.30;49.70;;;;;;5094959;28;20393;-69
2022/06/23 11:30:03;;;;;;;10.27;4.20;;;28.30;52.10;;;;;;5094984;28;20020;-68
2022/06/23 11:33:23;;;;;;;8.32;3.55;;;28.40;49.10;;;;;;5093862;28;20029;-68
2022/06/23 11:36:14;;;;;;;8.48;3.60;;;28.40;49.10;;;;;;5095022;28;20021;-68
2022/06/23 11:38:51;;;;;;;11.15;3.78;;;28.60;50.00;;;;;;5094897;28;20055;-68
2022/06/23 11:41:22;;;;;;;7.72;3.25;;;28.60;50.30;;;;;;5094763;28;20024;-68
2022/06/23 11:43:56;;;;;;;12.23;3.75;;;28.60;48.60;;;;;;5094743;28;20048;-69
2022/06/23 11:46:34;;;;;;;12.73;4.00;;;28.70;48.90;;;;;;5094685;28;20039;-68
2022/06/23 11:49:36;;;;;;;9.20;3.50;;;28.70;47.90;;;;;;5094589;28;20033;-68
2022/06/23 11:52:27;;;;;;;11.27;3.88;;;28.70;46.40;;;;;;5093744;28;20032;-68
2022/06/23 11:55:32;;;;;;;7.60;3.60;;;28.70;47.40;;;;;;5094604;28;20025;-69
2022/06/23 11:58:32;;;;;;;10.02;3.38;;;28.80;46.60;;;;;;5094382;28;20029;-69
2022/06/23 12:01:14;;;;;;;12.05;3.60;;;28.90;45.00;;;;;;5094373;28;20115;-68
2022/06/23 12:04:08;;;;;;;11.10;4.30;;;29.00;47.60;;;;;;5094294;28;20029;-68
2022/06/23 12:07:10;;;;;;;8.38;3.90;;;29.00;47.70;;;;;;5094332;28;20024;-69
2022/06/23 12:09:54;;;;;;;;;;;29.00;47.40;;;;;;5094665;28;20436;-68
2022/06/23 12:12:21;;;;;;;9.95;4.43;;;29.00;48.20;;;;;;5093981;28;19972;-69
2022/06/23 12:14:46;;;;;;;10.25;4.05;;;29.10;48.40;;;;;;5094029;28;20024;-68
2022/06/23 12:17:23;;;;;;;7.22;3.65;;;29.20;48.20;;;;;;5093968;28;20020;-69
2022/06/23 12:20:13;;;;;;;9.40;3.85;;;29.30;45.80;;;;;;5093983;28;20032;-69
2022/06/23 12:22:44;;;;;;;9.02;4.07;;;29.40;44.20;;;;;;5094057;28;20017;-68
2022/06/23 12:25:32;;;;;;;12.40;4.70;;;29.40;46.80;;;;;;5094028;28;20027;-68
2022/06/23 12:28:15;;;;;;;7.47;3.78;;;29.50;48.00;;;;;;5093855;28;20391;-68
2022/06/23 12:31:05;;;;;;;9.52;3.88;;;29.60;46.30;;;;;;5093817;28;20031;-68
2022/06/23 12:33:42;;;;;;;8.45;4.30;;;29.60;44.70;;;;;;5093775;28;20017;-68
2022/06/23 12:36:29;;;;;;;7.15;3.95;;;29.60;44.30;;;;;;5093653;28;20025;-68
2022/06/23 12:39:00;;;;;;;7.50;3.53;;;29.60;44.40;;;;;;5093815;28;20053;-68
2022/06/23 12:41:40;;;;;;;14.27;4.25;;;29.70;45.10;;;;;;5093617;28;20024;-69
2022/06/23 12:44:25;;;;;;;7.97;3.70;;;29.80;45.20;;;;;;5093601;28;20080;-68
2022/06/23 12:47:22;;;;;;;10.50;4.28;;;29.90;44.00;;;;;;5093501;28;20039;-69
2022/06/23 12:49:50;;;;;;;10.75;3.67;;;29.90;44.30;;;;;;5093590;28;20055;-68
2022/06/23 12:52:16;;;;;;;6.20;3.78;;;29.90;45.00;;;;;;5093445;28;20025;-69
2022/06/23 12:55:09;;;;;;;7.80;3.83;;;29.90;44.80;;;;;;5093430;28;20028;-69
2022/06/23 12:57:50;;;;;;;9.52;4.07;;;30.00;43.90;;;;;;5093440;28;20028;-68
2022/06/23 13:00:45;;;;;;;7.72;3.65;;;30.00;45.50;;;;;;5093410;28;20025;-69
2022/06/23 13:03:19;;;;;;;10.75;3.45;;;30.10;42.30;;;;;;5066064;28;20096;-69
2022/06/23 13:06:13;;;;;;;10.02;4.07;;;30.00;42.50;;;;;;5093315;28;20036;-68
2022/06/23 13:08:56;;;;;;;10.00;3.63;;;30.10;44.70;;;;;;5092802;28;20033;-69
2022/06/23 13:11:39;;;;;;;12.48;3.53;;;30.20;43.10;;;;;;5093128;28;20063;-69
2022/06/23 13:14:14;;;;;;;8.82;3.70;;;30.20;42.50;;;;;;5093219;28;20028;-69
2022/06/23 13:17:06;;;;;;;6.45;3.40;;;30.20;43.60;;;;;;5093255;28;20017;-69
2022/06/23 13:19:39;;;;;;;10.70;3.78;;;30.30;42.60;;;;;;5093170;28;20024;-68
2022/06/23 13:22:07;;;;;;;8.70;3.38;;;30.20;42.30;;;;;;5093315;28;20085;-68
2022/06/23 13:24:36;;;;;;;9.13;3.72;;;30.30;43.00;;;;;;5093097;28;20016;-68
2022/06/23 13:27:10;;;;;;;7.30;3.20;;;30.30;43.00;;;;;;5093028;28;20036;-67
2022/06/23 13:30:03;;;;;;;7.40;3.42;;;30.30;42.90;;;;;;5093150;28;20032;-67
2022/06/23 13:32:38;;;;;;;9.85;3.25;;;30.40;40.30;;;;;;5093055;28;20020;-68
2022/06/23 13:35:20;;;;;;;9.82;3.60;;;30.40;42.10;;;;;;5093091;28;20032;-67
2022/06/23 13:37:49;;;;;;;;;;;30.50;42.00;;;;;;5093469;28;20032;-67
2022/06/23 13:40:21;;;;;;;12.52;4.15;;;30.50;39.60;;;;;;5093128;28;19954;-67
2022/06/23 13:43:09;;;;;;;7.65;3.50;;;30.40;40.60;;;;;;5093141;28;20048;-67
2022/06/23 13:45:44;;;;;;;8.32;3.63;;;30.50;40.10;;;;;;5092999;28;20032;-68
2022/06/23 13:48:39;;;;;;;7.45;3.53;;;30.60;41.10;;;;;;5092912;28;20029;-67
2022/06/23 13:51:20;;;;;;;9.30;3.22;;;30.70;41.50;;;;;;5092992;28;20064;-68
2022/06/23 13:54:13;;;;;;;8.93;3.50;;;30.80;41.50;;;;;;5092899;28;20037;-68
2022/06/23 13:57:02;;;;;;;8.35;3.53;;;30.70;41.60;;;;;;5092898;28;20434;-68
2022/06/23 13:59:46;;;;;;;8.32;3.08;;;30.70;39.50;;;;;;5084448;28;20039;-68